createdAt,value
2023-01-26T00:01:56.546Z,63.15
2023-01-26T00:05:07.827Z,65.57
2023-01-26T00:07:54.682Z,57.17
2023-01-26T00:10:21.128Z,66.25
2023-01-26T00:12:47.623Z,64.30
2023-01-26T00:15:14.142Z,66.75
2023-01-26T00:17:45.150Z,67.82
2023-01-26T00:20:12.305Z,61.20
2023-01-26T00:22:38.975Z,64.38
2023-01-26T00:25:16.853Z,60.13
2023-01-26T00:27:44.419Z,61.47
2023-01-26T00:30:11.987Z,52.83
2023-01-26T00:32:44.927Z,55.27
2023-01-26T00:35:11.798Z,62.90
2023-01-26T00:37:38.358Z,52.72
2023-01-26T00:40:10.934Z,53.97
2023-01-26T00:42:42.645Z,54.70
2023-01-26T00:45:09.525Z,51.00
2023-01-26T00:47:45.232Z,50.50
2023-01-26T00:50:12.135Z,52.42
2023-01-26T00:52:39.179Z,50.60
2023-01-26T00:55:06.000Z,53.25
2023-01-26T00:57:37.666Z,50.37
2023-01-26T01:00:06.558Z,50.78
2023-01-26T01:02:33.019Z,53.08
2023-01-26T01:05:33.094Z,47.00
2023-01-26T01:07:59.742Z,46.58
2023-01-26T01:10:29.223Z,50.47
2023-01-26T01:12:56.667Z,43.58
2023-01-26T01:15:23.797Z,47.92
2023-01-26T01:17:50.437Z,48.83
2023-01-26T01:20:17.140Z,49.25
2023-01-26T01:22:43.573Z,49.83
2023-01-26T01:25:11.189Z,44.55
2023-01-26T01:27:37.731Z,44.85
2023-01-26T01:30:08.253Z,51.22
2023-01-26T01:32:40.007Z,51.08
2023-01-26T01:35:07.189Z,45.33
2023-01-26T01:37:34.298Z,44.40
2023-01-26T01:40:00.768Z,46.40
2023-01-26T01:42:27.629Z,47.67
2023-01-26T01:45:33.742Z,44.22
2023-01-26T01:48:05.475Z,43.43
2023-01-26T01:50:38.639Z,43.20
2023-01-26T01:53:10.497Z,43.35
2023-01-26T01:55:37.010Z,45.88
2023-01-26T01:58:05.551Z,41.90
2023-01-26T02:00:32.103Z,34.60
2023-01-26T02:03:12.027Z,43.15
2023-01-26T02:05:54.938Z,40.90
2023-01-26T02:08:45.264Z,38.45
2023-01-26T02:11:21.570Z,39.65
2023-01-26T02:13:49.387Z,40.70
2023-01-26T02:16:17.292Z,38.25
2023-01-26T02:18:45.052Z,42.50
2023-01-26T02:21:18.115Z,39.78
2023-01-26T02:24:02.514Z,41.85
2023-01-26T02:26:35.381Z,40.87
2023-01-26T02:29:04.459Z,42.25
2023-01-26T02:31:50.337Z,43.38
2023-01-26T02:34:55.743Z,38.65
2023-01-26T02:37:40.750Z,34.97
2023-01-26T02:40:55.240Z,40.83
2023-01-26T02:43:31.335Z,40.35
2023-01-26T02:45:58.046Z,44.95
2023-01-26T02:48:43.084Z,39.30
2023-01-26T02:51:11.655Z,41.08
2023-01-26T02:53:38.122Z,42.20
2023-01-26T02:56:04.954Z,42.47
2023-01-26T02:58:47.728Z,34.30
2023-01-26T03:01:14.237Z,40.22
2023-01-26T03:03:45.049Z,41.58
2023-01-26T03:06:13.944Z,39.87
2023-01-26T03:08:40.669Z,41.17
2023-01-26T03:11:09.213Z,37.92
2023-01-26T03:13:43.824Z,38.08
2023-01-26T03:16:18.452Z,41.28
2023-01-26T03:19:05.298Z,42.50
2023-01-26T03:21:59.768Z,39.08
2023-01-26T03:24:45.114Z,39.40
2023-01-26T03:27:26.813Z,37.58
2023-01-26T03:29:56.433Z,37.75
2023-01-26T03:32:23.551Z,41.80
2023-01-26T03:34:50.444Z,39.47
2023-01-26T03:37:28.334Z,36.10
2023-01-26T03:40:13.757Z,38.67
2023-01-26T03:42:59.082Z,36.75
2023-01-26T03:45:44.261Z,32.40
2023-01-26T03:48:34.357Z,36.30
2023-01-26T03:51:26.788Z,35.13
2023-01-26T03:54:12.007Z,34.35
2023-01-26T03:56:38.597Z,36.58
2023-01-26T03:59:10.122Z,36.80
2023-01-26T04:02:05.001Z,38.13
2023-01-26T04:04:50.755Z,33.75
2023-01-26T04:07:37.760Z,35.83
2023-01-26T04:10:04.487Z,33.38
2023-01-26T04:12:30.905Z,36.87
2023-01-26T04:15:16.098Z,31.70
2023-01-26T04:18:01.232Z,32.63
2023-01-26T04:20:47.466Z,34.33
2023-01-26T04:23:20.633Z,32.55
2023-01-26T04:25:48.017Z,36.17
2023-01-26T04:28:23.768Z,32.65
2023-01-26T04:30:56.673Z,40.00
2023-01-26T04:33:23.267Z,35.53
2023-01-26T04:35:55.892Z,30.23
2023-01-26T04:38:34.056Z,29.63
2023-01-26T04:41:00.505Z,30.98
2023-01-26T04:43:51.047Z,34.40
2023-01-26T04:46:17.612Z,32.15
2023-01-26T04:48:44.070Z,34.10
2023-01-26T04:51:21.902Z,29.33
2023-01-26T04:53:51.658Z,33.13
2023-01-26T04:56:55.342Z,33.10
2023-01-26T04:59:33.080Z,33.65
2023-01-26T05:02:00.039Z,29.35
2023-01-26T05:04:45.097Z,27.73
2023-01-26T05:07:11.809Z,32.15
2023-01-26T05:09:44.554Z,29.90
2023-01-26T05:12:42.731Z,32.67
2023-01-26T05:15:12.403Z,28.77
2023-01-26T05:17:38.829Z,33.87
2023-01-26T05:20:05.728Z,32.15
2023-01-26T05:22:32.162Z,33.70
2023-01-26T05:24:58.602Z,33.45
2023-01-26T05:27:25.006Z,31.75
2023-01-26T05:30:01.024Z,29.17
2023-01-26T05:32:28.716Z,28.60
2023-01-26T05:34:55.594Z,34.60
2023-01-26T05:37:25.108Z,32.08
2023-01-26T05:40:40.520Z,33.15
2023-01-26T05:43:08.394Z,32.87
2023-01-26T05:45:38.987Z,32.88
2023-01-26T05:48:20.689Z,32.45
2023-01-26T05:50:57.603Z,35.35
2023-01-26T05:53:24.618Z,29.75
2023-01-26T05:55:51.068Z,34.20
2023-01-26T05:58:17.600Z,30.67
2023-01-26T06:00:44.192Z,33.55
2023-01-26T06:03:10.600Z,33.17
2023-01-26T06:05:38.903Z,35.40
2023-01-26T06:08:05.657Z,35.37
2023-01-26T06:10:47.516Z,32.35
2023-01-26T06:13:13.934Z,31.27
2023-01-26T06:15:40.400Z,32.58
2023-01-26T06:18:06.843Z,35.88
2023-01-26T06:20:44.030Z,33.37
2023-01-26T06:23:12.196Z,39.53
2023-01-26T06:25:48.871Z,29.30
2023-01-26T06:28:24.732Z,36.60
2023-01-26T06:30:51.309Z,29.67
2023-01-26T06:33:17.806Z,34.03
2023-01-26T06:35:51.773Z,34.00
2023-01-26T06:38:18.175Z,32.80
2023-01-26T06:40:45.796Z,31.15
2023-01-26T06:43:12.272Z,34.60
2023-01-26T06:45:38.693Z,31.77
2023-01-26T06:48:18.323Z,30.90
2023-01-26T06:50:45.119Z,33.72
2023-01-26T06:53:37.173Z,32.15
2023-01-26T06:56:03.907Z,29.80
2023-01-26T06:58:53.369Z,34.87
2023-01-26T07:01:22.070Z,28.38
2023-01-26T07:04:04.068Z,33.60
2023-01-26T07:06:30.557Z,32.38
2023-01-26T07:08:57.114Z,30.40
2023-01-26T07:11:25.407Z,35.50
2023-01-26T07:13:57.229Z,36.25
2023-01-26T07:16:23.785Z,30.98
2023-01-26T07:18:50.588Z,29.52
2023-01-26T07:21:23.060Z,34.17
2023-01-26T07:23:50.718Z,32.40
2023-01-26T07:26:17.427Z,35.25
2023-01-26T07:28:43.991Z,35.05
2023-01-26T07:31:26.836Z,35.50
2023-01-26T07:33:53.294Z,38.83
2023-01-26T07:36:22.034Z,29.13
2023-01-26T07:38:48.523Z,32.17
2023-01-26T07:41:14.939Z,34.83
2023-01-26T07:43:42.632Z,37.92
2023-01-26T07:46:10.799Z,33.45
2023-01-26T07:48:44.347Z,35.80
2023-01-26T07:51:20.923Z,33.45
2023-01-26T07:53:49.969Z,41.42
2023-01-26T07:56:34.878Z,36.25
2023-01-26T07:59:03.744Z,32.80
2023-01-26T08:04:00.604Z,38.92
2023-01-26T08:06:27.268Z,44.03
2023-01-26T08:08:57.769Z,40.38
2023-01-26T08:11:25.785Z,34.95
2023-01-26T08:13:52.330Z,34.33
2023-01-26T08:16:19.044Z,58.67
2023-01-26T08:18:46.420Z,39.25
2023-01-26T08:21:14.825Z,47.30
2023-01-26T08:23:41.703Z,42.20
2023-01-26T08:26:11.865Z,46.10
2023-01-26T08:28:39.044Z,44.47
2023-01-26T08:31:11.548Z,43.10
2023-01-26T08:33:39.606Z,40.75
2023-01-26T08:36:09.084Z,35.42
2023-01-26T08:38:35.543Z,45.40
2023-01-26T08:41:02.943Z,43.50
2023-01-26T08:43:30.150Z,42.85
2023-01-26T08:45:56.920Z,43.03
2023-01-26T08:48:23.735Z,40.53
2023-01-26T08:50:54.657Z,44.63
2023-01-26T08:53:21.209Z,37.33
2023-01-26T08:55:47.633Z,36.97
2023-01-26T08:58:14.067Z,35.60
2023-01-26T09:00:40.753Z,42.88
2023-01-26T09:03:07.619Z,34.83
2023-01-26T09:05:37.097Z,34.53
2023-01-26T09:08:04.900Z,33.83
2023-01-26T09:10:31.465Z,37.03
2023-01-26T09:12:59.202Z,27.35
2023-01-26T09:15:25.838Z,29.17
2023-01-26T09:17:52.615Z,30.77
2023-01-26T09:20:19.885Z,35.22
2023-01-26T09:22:46.423Z,35.80
2023-01-26T09:25:13.168Z,37.08
2023-01-26T09:27:40.642Z,31.27
2023-01-26T09:30:08.512Z,29.73
2023-01-26T09:32:35.466Z,26.48
2023-01-26T09:35:01.922Z,27.65
2023-01-26T09:37:28.494Z,20.73
2023-01-26T09:39:54.984Z,26.20
2023-01-26T09:46:05.102Z,28.17
2023-01-26T09:48:59.992Z,24.38
2023-01-26T09:51:33.564Z,28.02
2023-01-26T09:54:06.703Z,24.30
2023-01-26T09:56:35.072Z,27.85
2023-01-26T09:59:15.025Z,21.38
2023-01-26T10:01:53.982Z,21.85
2023-01-26T10:04:32.803Z,27.50
2023-01-26T10:07:02.090Z,26.37
2023-01-26T10:09:35.077Z,19.27
2023-01-26T10:12:07.168Z,19.13
2023-01-26T10:14:42.935Z,18.40
2023-01-26T10:17:20.581Z,11.70
2023-01-26T10:19:52.732Z,13.80
2023-01-26T10:22:31.795Z,11.63
2023-01-26T10:25:00.116Z,14.25
2023-01-26T10:27:28.404Z,11.48
2023-01-26T10:29:55.086Z,13.32
2023-01-26T10:32:22.788Z,9.33
2023-01-26T10:37:19.551Z,11.80
2023-01-26T10:40:04.438Z,13.82
2023-01-26T10:42:33.069Z,16.40
2023-01-26T10:45:05.207Z,11.32
2023-01-26T10:47:31.746Z,13.90
2023-01-26T10:50:24.748Z,11.75
2023-01-26T10:52:59.940Z,13.85
2023-01-26T10:55:26.573Z,9.50
2023-01-26T10:57:52.985Z,11.98
2023-01-26T11:00:25.279Z,14.17
2023-01-26T11:03:13.635Z,9.20
2023-01-26T11:05:40.211Z,6.95
2023-01-26T11:08:36.583Z,11.20
2023-01-26T11:11:04.227Z,11.85
2023-01-26T11:13:47.586Z,7.33
2023-01-26T11:16:27.987Z,10.68
2023-01-26T11:19:20.977Z,11.10
2023-01-26T11:21:55.414Z,11.90
2023-01-26T11:24:30.083Z,10.63
2023-01-26T11:27:34.532Z,9.43
2023-01-26T11:30:40.470Z,9.48
2023-01-26T11:33:45.769Z,10.95
2023-01-26T11:36:25.832Z,8.88
2023-01-26T11:39:19.195Z,12.27
2023-01-26T11:42:29.671Z,12.70
2023-01-26T11:45:22.402Z,12.02
2023-01-26T11:48:06.929Z,9.77
2023-01-26T11:50:54.977Z,9.25
2023-01-26T11:54:00.359Z,10.52
2023-01-26T11:56:53.954Z,6.73
2023-01-26T11:59:50.438Z,11.27
2023-01-26T12:03:05.883Z,12.68
2023-01-26T12:05:55.447Z,11.45
2023-01-26T12:08:47.244Z,9.77
2023-01-26T12:11:22.982Z,8.53
2023-01-26T12:13:59.870Z,6.93
2023-01-26T12:16:44.531Z,10.68
2023-01-26T12:19:30.902Z,8.43
2023-01-26T12:22:05.999Z,10.25
2023-01-26T12:25:08.262Z,11.30
2023-01-26T12:27:53.477Z,5.07
2023-01-26T12:30:33.126Z,6.50
2023-01-26T12:33:02.208Z,4.90
2023-01-26T12:35:51.583Z,9.23
2023-01-26T12:39:08.100Z,5.67
2023-01-26T12:41:55.788Z,10.15
2023-01-26T12:44:43.045Z,8.65
2023-01-26T12:47:46.645Z,9.40
2023-01-26T12:50:26.026Z,9.45
2023-01-26T12:52:59.988Z,7.00
2023-01-26T12:55:51.929Z,5.75
2023-01-26T12:58:31.269Z,7.63
2023-01-26T13:01:08.751Z,6.45
2023-01-26T13:03:58.740Z,5.75
2023-01-26T13:06:27.208Z,6.47
2023-01-26T13:09:18.496Z,8.55
2023-01-26T13:11:48.075Z,6.57
2023-01-26T13:14:52.136Z,8.45
2023-01-26T13:17:49.774Z,6.05
2023-01-26T13:20:43.409Z,10.73
2023-01-26T13:23:27.856Z,3.15
2023-01-26T13:26:45.188Z,6.05
2023-01-26T13:29:32.716Z,6.03
2023-01-26T13:32:24.992Z,13.25
2023-01-26T13:34:57.440Z,7.57
2023-01-26T13:37:39.377Z,9.98
2023-01-26T13:40:34.061Z,7.80
2023-01-26T13:43:26.781Z,7.53
2023-01-26T13:49:43.432Z,5.60
2023-01-26T13:52:26.831Z,7.80
2023-01-26T13:54:56.760Z,8.10
2023-01-26T13:57:30.692Z,6.70
2023-01-26T14:00:00.336Z,8.10
2023-01-26T14:02:36.188Z,6.00
2023-01-26T14:05:23.306Z,7.10
2023-01-26T14:07:58.118Z,5.53
2023-01-26T14:10:25.020Z,5.82
2023-01-26T14:12:57.464Z,5.75
2023-01-26T14:15:32.914Z,6.67
2023-01-26T14:18:01.915Z,10.95
2023-01-26T14:20:35.001Z,4.15
2023-01-26T14:23:19.268Z,8.55
2023-01-26T14:25:47.319Z,6.00
2023-01-26T14:28:22.138Z,10.13
2023-01-26T14:31:02.849Z,9.05
2023-01-26T14:33:39.670Z,6.80
2023-01-26T14:36:06.589Z,5.22
2023-01-26T14:39:46.786Z,10.90
2023-01-26T14:42:42.830Z,9.50
2023-01-26T14:45:37.753Z,5.30
2023-01-26T14:48:09.095Z,5.47
2023-01-26T14:50:37.203Z,6.90
2023-01-26T14:53:06.754Z,9.70
2023-01-26T14:55:36.988Z,6.63
2023-01-26T14:58:15.759Z,9.65
2023-01-26T15:00:42.419Z,6.95
2023-01-26T15:03:32.474Z,5.47
2023-01-26T15:06:09.592Z,9.13
2023-01-26T15:08:37.520Z,12.67
2023-01-26T15:11:23.005Z,4.75
2023-01-26T15:13:54.089Z,6.70
2023-01-26T15:16:25.674Z,4.63
2023-01-26T15:19:08.837Z,4.57
2023-01-26T15:21:46.934Z,6.40
2023-01-26T15:24:15.150Z,7.07
2023-01-26T15:26:44.665Z,7.60
2023-01-26T15:29:32.895Z,10.27
2023-01-26T15:32:04.837Z,6.70
2023-01-26T15:34:31.776Z,9.40
2023-01-26T15:36:59.158Z,6.55
2023-01-26T15:39:25.903Z,5.45
2023-01-26T15:42:15.074Z,7.63
2023-01-26T15:44:41.937Z,6.28
2023-01-26T15:47:10.218Z,6.67
2023-01-26T15:49:36.679Z,6.43
2023-01-26T15:52:04.647Z,10.48
2023-01-26T15:54:36.179Z,5.63
2023-01-26T15:57:02.577Z,7.80
2023-01-26T15:59:31.175Z,8.27
2023-01-26T16:01:57.908Z,10.88
2023-01-26T16:04:25.426Z,5.60
2023-01-26T16:06:51.900Z,7.35
2023-01-26T16:09:28.276Z,5.78
2023-01-26T16:12:01.995Z,4.57
2023-01-26T16:14:56.472Z,8.45
2023-01-26T16:17:23.089Z,6.65
2023-01-26T16:20:02.794Z,6.63
2023-01-26T16:22:29.311Z,4.13
2023-01-26T16:24:55.753Z,4.87
2023-01-26T16:27:25.206Z,3.50
2023-01-26T16:29:55.719Z,8.25
2023-01-26T16:32:29.498Z,15.90
2023-01-26T16:34:57.973Z,8.02
2023-01-26T16:37:25.488Z,6.20
2023-01-26T16:40:24.013Z,5.60
2023-01-26T16:42:52.394Z,6.18
2023-01-26T16:45:21.755Z,4.13
2023-01-26T16:47:55.578Z,5.07
2023-01-26T16:50:26.509Z,6.27
2023-01-26T16:52:53.280Z,7.75
2023-01-26T16:55:20.200Z,9.38
2023-01-26T16:57:53.706Z,7.85
2023-01-26T17:00:24.687Z,5.22
2023-01-26T17:02:56.272Z,7.83
2023-01-26T17:05:22.794Z,8.40
2023-01-26T17:07:52.424Z,7.63
2023-01-26T17:10:22.414Z,9.70
2023-01-26T17:12:48.820Z,8.27
2023-01-26T17:15:15.714Z,9.57
2023-01-26T17:17:45.756Z,4.28
2023-01-26T17:20:19.119Z,10.27
2023-01-26T17:22:46.355Z,7.07
2023-01-26T17:25:16.318Z,10.00
2023-01-26T17:27:43.605Z,12.67
2023-01-26T17:30:10.655Z,10.43
2023-01-26T17:32:37.191Z,10.25
2023-01-26T17:35:03.863Z,8.60
2023-01-26T17:37:31.564Z,7.95
2023-01-26T17:39:58.056Z,5.40
2023-01-26T17:42:25.668Z,4.15
2023-01-26T17:44:52.365Z,7.55
2023-01-26T17:47:18.823Z,7.47
2023-01-26T17:49:45.302Z,8.00
2023-01-26T17:52:14.324Z,6.97
2023-01-26T17:54:41.239Z,6.88
2023-01-26T17:57:08.197Z,5.85
2023-01-26T17:59:34.754Z,6.68
2023-01-26T18:02:01.330Z,8.35
2023-01-26T18:04:29.237Z,8.10
2023-01-26T18:06:57.152Z,9.73
2023-01-26T18:09:23.724Z,14.35
2023-01-26T18:11:50.230Z,14.35
2023-01-26T18:14:16.911Z,7.00
2023-01-26T18:16:43.441Z,14.87
2023-01-26T18:19:10.042Z,11.75
2023-01-26T18:21:37.015Z,10.25
2023-01-26T18:24:05.331Z,7.45
2023-01-26T18:26:36.233Z,8.13
2023-01-26T18:29:04.466Z,8.40
2023-01-26T18:31:34.645Z,7.78
2023-01-26T18:34:02.448Z,8.10
2023-01-26T18:36:29.775Z,5.13
2023-01-26T18:39:01.880Z,9.23
2023-01-26T18:41:33.030Z,8.63
2023-01-26T18:44:00.140Z,7.28
2023-01-26T18:46:28.187Z,6.50
2023-01-26T18:49:00.479Z,8.98
2023-01-26T18:51:29.238Z,11.10
2023-01-26T18:53:56.131Z,8.13
2023-01-26T18:56:22.694Z,8.25
2023-01-26T18:58:52.785Z,8.20
2023-01-26T19:01:21.170Z,4.30
2023-01-26T19:03:54.036Z,5.18
2023-01-26T19:06:21.963Z,6.90
2023-01-26T19:09:01.367Z,8.05
2023-01-26T19:11:30.782Z,9.95
2023-01-26T19:13:57.823Z,6.40
2023-01-26T19:16:24.932Z,7.93
2023-01-26T19:18:51.944Z,5.87
2023-01-26T19:21:21.770Z,8.68
2023-01-26T19:23:49.074Z,10.45
2023-01-26T19:26:19.467Z,7.50
2023-01-26T19:28:48.896Z,11.52
2023-01-26T19:31:19.301Z,6.63
2023-01-26T19:34:07.057Z,12.07
2023-01-26T19:36:36.200Z,10.25
2023-01-26T19:39:03.926Z,11.80
2023-01-26T19:41:30.386Z,8.93
2023-01-26T19:43:56.829Z,6.97
2023-01-26T19:46:23.701Z,9.98
2023-01-26T19:48:50.764Z,9.32
2023-01-26T19:51:22.273Z,11.63
2023-01-26T19:53:50.979Z,9.65
2023-01-26T19:56:20.936Z,11.60
2023-01-26T19:58:52.544Z,9.38
2023-01-26T20:01:20.311Z,8.68
2023-01-26T20:03:57.249Z,7.45
2023-01-26T20:06:27.292Z,11.18
2023-01-26T20:08:55.116Z,11.67
2023-01-26T20:11:25.067Z,11.77
2023-01-26T20:13:55.973Z,10.48
2023-01-26T20:16:22.601Z,11.65
2023-01-26T20:18:49.050Z,16.60
2023-01-26T20:21:15.574Z,7.70
2023-01-26T20:23:53.608Z,10.68
2023-01-26T20:26:21.010Z,9.15
2023-01-26T20:28:47.758Z,12.07
2023-01-26T20:31:17.649Z,11.98
2023-01-26T20:33:47.717Z,7.90
2023-01-26T20:36:16.787Z,4.80
2023-01-26T20:38:43.760Z,9.65
2023-01-26T20:41:13.087Z,8.43
2023-01-26T20:43:49.523Z,9.27
2023-01-26T20:46:19.929Z,7.67
2023-01-26T20:48:47.067Z,9.75
2023-01-26T20:51:19.154Z,14.52
2023-01-26T20:53:47.573Z,9.68
2023-01-26T20:56:14.859Z,8.45
2023-01-26T20:58:44.827Z,6.67
2023-01-26T21:01:14.203Z,10.07
2023-01-26T21:03:41.386Z,9.23
2023-01-26T21:06:09.705Z,7.97
2023-01-26T21:08:36.825Z,12.05
2023-01-26T21:11:04.905Z,6.77
2023-01-26T21:13:31.282Z,9.63
2023-01-26T21:15:57.706Z,5.68
2023-01-26T21:18:24.113Z,10.82
2023-01-26T21:20:58.280Z,9.75
2023-01-26T21:23:25.068Z,13.50
2023-01-26T21:26:01.251Z,9.60
2023-01-26T21:28:28.951Z,9.40
2023-01-26T21:31:08.473Z,15.13
2023-01-26T21:33:39.296Z,16.85
2023-01-26T21:36:07.290Z,8.70
2023-01-26T21:38:39.368Z,8.75
2023-01-26T21:41:29.469Z,13.40
2023-01-26T21:44:04.441Z,15.70
2023-01-26T21:46:30.862Z,15.50
2023-01-26T21:48:57.369Z,14.60
2023-01-26T21:51:42.956Z,11.88
2023-01-26T21:54:09.777Z,10.82
2023-01-26T21:56:36.400Z,10.93
2023-01-26T21:59:06.200Z,9.45
2023-01-26T22:01:38.041Z,14.03
2023-01-26T22:04:10.087Z,11.95
2023-01-26T22:06:37.173Z,9.30
2023-01-26T22:09:08.350Z,10.50
2023-01-26T22:11:34.839Z,12.50
2023-01-26T22:14:01.657Z,8.27
2023-01-26T22:16:28.328Z,8.10
2023-01-26T22:18:54.754Z,9.05
2023-01-26T22:21:21.533Z,8.38
2023-01-26T22:23:48.079Z,9.45
2023-01-26T22:26:17.645Z,8.60
2023-01-26T22:28:50.025Z,7.32
2023-01-26T22:31:19.672Z,11.38
2023-01-26T22:33:46.741Z,7.38
2023-01-26T22:36:13.399Z,9.32
2023-01-26T22:38:40.044Z,6.47
2023-01-26T22:41:06.860Z,12.73
2023-01-26T22:43:33.900Z,8.60
2023-01-26T22:46:06.053Z,8.07
2023-01-26T22:48:33.176Z,7.88
2023-01-26T22:51:16.763Z,7.87
2023-01-26T22:53:44.399Z,8.25
2023-01-26T22:56:11.162Z,6.45
2023-01-26T22:58:47.683Z,5.82
2023-01-26T23:01:22.769Z,10.50
2023-01-26T23:03:53.931Z,4.80
2023-01-26T23:06:20.786Z,11.10
2023-01-26T23:08:47.359Z,4.82
2023-01-26T23:11:19.746Z,10.02
2023-01-26T23:13:47.804Z,6.10
2023-01-26T23:16:14.233Z,9.37
2023-01-26T23:18:40.925Z,4.78
2023-01-26T23:21:07.881Z,5.88
2023-01-26T23:23:34.809Z,3.58
2023-01-26T23:26:01.584Z,6.93
2023-01-26T23:28:31.317Z,5.77
2023-01-26T23:30:58.748Z,4.13
2023-01-26T23:33:27.569Z,5.88
2023-01-26T23:35:54.003Z,6.70
2023-01-26T23:38:22.159Z,9.30
2023-01-26T23:40:50.144Z,6.27
2023-01-26T23:43:17.904Z,5.35
2023-01-26T23:45:46.480Z,8.32
2023-01-26T23:48:13.583Z,6.95
2023-01-26T23:50:40.232Z,3.88
2023-01-26T23:53:06.925Z,7.10
2023-01-26T23:55:39.131Z,6.05
2023-01-26T23:58:05.497Z,8.20
